地図

経路データ

SID SEASON NUMBER BASIN SUBBASIN NAME ISO_TIME NATURE LAT LON WMO_WIND WMO_PRES WMO_AGENCY TRACK_TYPE DIST2LAND LANDFALL IFLAG USA_AGENCY USA_ATCF_ID USA_LAT USA_LON USA_RECORD USA_STATUS USA_WIND USA_PRES USA_SSHS USA_R34_NE USA_R34_SE USA_R34_SW USA_R34_NW USA_R50_NE USA_R50_SE USA_R50_SW USA_R50_NW USA_R64_NE USA_R64_SE USA_R64_SW USA_R64_NW USA_POCI USA_ROCI USA_RMW USA_EYE TOKYO_LAT TOKYO_LON TOKYO_GRADE TOKYO_WIND TOKYO_PRES TOKYO_R50_DIR TOKYO_R50_LONG TOKYO_R50_SHORT TOKYO_R30_DIR TOKYO_R30_LONG TOKYO_R30_SHORT TOKYO_LAND CMA_LAT CMA_LON CMA_CAT CMA_WIND CMA_PRES HKO_LAT HKO_LON HKO_CAT HKO_WIND HKO_PRES NEWDELHI_LAT NEWDELHI_LON NEWDELHI_GRADE NEWDELHI_WIND NEWDELHI_PRES NEWDELHI_CI NEWDELHI_DP NEWDELHI_POCI REUNION_LAT REUNION_LON REUNION_TYPE REUNION_WIND REUNION_PRES REUNION_TNUM REUNION_CI REUNION_RMW REUNION_R34_NE REUNION_R34_SE REUNION_R34_SW REUNION_R34_NW REUNION_R50_NE REUNION_R50_SE REUNION_R50_SW REUNION_R50_NW REUNION_R64_NE REUNION_R64_SE REUNION_R64_SW REUNION_R64_NW BOM_LAT BOM_LON BOM_TYPE BOM_WIND BOM_PRES BOM_TNUM BOM_CI BOM_RMW BOM_R34_NE BOM_R34_SE BOM_R34_SW BOM_R34_NW BOM_R50_NE BOM_R50_SE BOM_R50_SW BOM_R50_NW BOM_R64_NE BOM_R64_SE BOM_R64_SW BOM_R64_NW BOM_ROCI BOM_POCI BOM_EYE BOM_POS_METHOD BOM_PRES_METHOD NADI_LAT NADI_LON NADI_CAT NADI_WIND NADI_PRES WELLINGTON_LAT WELLINGTON_LON WELLINGTON_WIND WELLINGTON_PRES DS824_LAT DS824_LON DS824_STAGE DS824_WIND DS824_PRES TD9636_LAT TD9636_LON TD9636_STAGE TD9636_WIND TD9636_PRES TD9635_LAT TD9635_LON TD9635_WIND TD9635_PRES TD9635_ROCI NEUMANN_LAT NEUMANN_LON NEUMANN_CLASS NEUMANN_WIND NEUMANN_PRES MLC_LAT MLC_LON MLC_CLASS MLC_WIND MLC_PRES USA_GUST BOM_GUST BOM_GUST_PER REUNION_GUST REUNION_GUST_PER USA_SEAHGT USA_SEARAD_NE USA_SEARAD_SE USA_SEARAD_SW USA_SEARAD_NW STORM_SPEED STORM_DIR
1889196N22124 1889 6 WP MM NOT_NAMED 1889-07-14 16:00:00 NR 21.7000 124.300 main 336 315 __________O___ -1 21.7000 124.300 4 9 243
1889196N22124 1889 6 WP MM NOT_NAMED 1889-07-14 18:00:00 NR 21.5646 124.010 main 315 284 __________P___ -1 21.5646 124.010 4 9 243
1889196N22124 1889 6 WP MM NOT_NAMED 1889-07-14 21:00:00 NR 21.3556 123.565 main 284 240 __________P___ -1 21.3556 123.565 4 10 243
1889196N22124 1889 6 WP MM NOT_NAMED 1889-07-15 00:00:00 NR 21.1327 123.095 main 244 208 __________P___ -1 21.1327 123.095 4 10 243
1889196N22124 1889 6 WP MM NOT_NAMED 1889-07-15 03:00:00 NR 20.8879 122.583 main 208 198 __________P___ -1 20.8879 122.583 4 11 243
1889196N22124 1889 6 WP MM NOT_NAMED 1889-07-15 04:00:00 NR 20.8000 122.400 main 198 182 __________O___ -1 20.8000 122.400 4 12 243
1889196N22124 1889 6 WP MM NOT_NAMED 1889-07-15 06:00:00 NR 20.6141 122.014 main 184 177 __________P___ -1 20.6141 122.014 4 13 243
1889196N22124 1889 6 WP MM NOT_NAMED 1889-07-15 09:00:00 NR 20.3162 121.385 main 186 156 __________P___ -1 20.3162 121.385 4 14 244
1889196N22124 1889 6 WP MM NOT_NAMED 1889-07-15 12:00:00 NR 20.0072 120.699 main 156 144 __________P___ -1 20.0072 120.699 4 15 245
1889196N22124 1889 6 WP MM NOT_NAMED 1889-07-15 15:00:00 NR 19.6999 119.958 main 149 153 __________P___ -1 19.6999 119.958 4 15 247
1889196N22124 1889 6 WP MM NOT_NAMED 1889-07-15 16:00:00 NR 19.6000 119.700 main 160 160 __________O___ -1 19.6000 119.700 4 16 248
1889196N22124 1889 6 WP MM NOT_NAMED 1889-07-15 18:00:00 NR 19.3905 119.155 main 184 193 __________P___ -1 19.3905 119.155 4 17 249
1889196N22124 1889 6 WP MM NOT_NAMED 1889-07-15 21:00:00 NR 19.0819 118.292 main 254 261 __________P___ -1 19.0819 118.292 4 17 250
1889196N22124 1889 6 WP MM NOT_NAMED 1889-07-16 00:00:00 NR 18.7990 117.415 main 334 334 __________P___ -1 18.7990 117.415 4 17 252
1889196N22124 1889 6 WP MM NOT_NAMED 1889-07-16 03:00:00 NR 18.5638 116.568 main 406 414 __________P___ -1 18.5638 116.568 4 16 254
1889196N22124 1889 6 WP MM NOT_NAMED 1889-07-16 04:00:00 NR 18.5000 116.300 main 434 434 __________O___ -1 18.5000 116.300 4 15 256
1889196N22124 1889 6 WP MM NOT_NAMED 1889-07-16 06:00:00 NR 18.3900 115.811 main 463 455 __________P___ -1 18.3900 115.811 4 14 259
1889196N22124 1889 6 WP MM NOT_NAMED 1889-07-16 09:00:00 NR 18.2761 115.121 main 455 400 __________P___ -1 18.2761 115.121 4 13 262
1889196N22124 1889 6 WP MM NOT_NAMED 1889-07-16 12:00:00 NR 18.2153 114.463 main 400 333 __________P___ -1 18.2153 114.463 4 12 266
1889196N22124 1889 6 WP MM NOT_NAMED 1889-07-16 15:00:00 NR 18.1979 113.817 main 333 315 __________P___ -1 18.1979 113.817 4 12 269
1889196N22124 1889 6 WP MM NOT_NAMED 1889-07-16 16:00:00 NR 18.2000 113.600 main 315 279 __________O___ -1 18.2000 113.600 4 12 271
1889196N22124 1889 6 WP MM NOT_NAMED 1889-07-16 18:00:00 NR 18.2140 113.162 main 279 214 __________P___ -1 18.2140 113.162 4 13 273
1889196N22124 1889 6 WP MM NOT_NAMED 1889-07-16 21:00:00 NR 18.2549 112.493 main 214 148 __________P___ -1 18.2549 112.493 4 13 274
1889196N22124 1889 6 WP MM NOT_NAMED 1889-07-17 00:00:00 NR 18.3121 111.814 main 148 77 __________P___ -1 18.3121 111.814 4 13 275
1889196N22124 1889 6 WP MM NOT_NAMED 1889-07-17 03:00:00 NR 18.3777 111.129 main 77 61 __________P___ -1 18.3777 111.129 4 13 276
1889196N22124 1889 6 WP MM NOT_NAMED 1889-07-17 04:00:00 NR 18.4000 110.900 main 61 __________O___ -1 18.4000 110.900 4 13 276

デジタル台風データ・検索

IBTrACS Databaseについて

本データベースは、米国NOAAが公開する1842年以降の世界の熱帯低気圧のベストトラックデータアーカイブInternational Best Track Archive for Climate Stewardship (IBTrACS)を、ウェブで閲覧しやすい形式に変換したものです。

最終更新日:2021-10-21